Charlevoix, MI

12:48 AM EDT on April 30, 2017 (GMT -0400)
Charlevoix Municipal

Weather History for KCVX - April, 2013

Change the Weather History Date:

Friday, April 12, 2013

  Actual Average Record
Temperature  
Mean Temperature 31 °F -  
Max Temperature 34 °F 49 °F 69 °F (2015)
Min Temperature 28 °F 33 °F 21 °F (2009)
Degree Days  
Heating Degree Days 34    
Moisture  
Dew Point 30 °F    
Average Humidity 94    
Maximum Humidity 100    
Minimum Humidity 85    
Precipitation  
Precipitation 0.00 in - - ()
Sea Level Pressure  
Sea Level Pressure 29.68 in    
Wind  
Wind Speed 15 mph (East)    
Max Wind Speed 25 mph    
Max Gust Speed 32 mph    
Visibility 4 miles    
Events Snow    
Averages and records for this station are not official NWS values.
T = Trace of Precipitation, MM = Missing Value Source: NWS Daily Summary

Daily Weather History Graph

Daily Weather History Graph

Search for Another Location

Airport or City:

Trip Planner

Search our weather history database for the weather conditions in past years. The results will help you decide how hot, cold, wet, or windy it might be!

Date:

Astronomy

Apr. 12, 2013 Rise Set
Actual Time 7:00 AM EDT 8:23 PM EDT
Civil Twilight 6:30 AM EDT 8:54 PM EDT
Nautical Twilight 5:53 AM EDT 9:31 PM EDT
Astronomical Twilight 5:14 AM EDT 10:10 PM EDT
Moon 8:04 AM EDT (4/12) 11:00 PM EDT (4/12)
Length of Visible Light 14h 23m
Length of Day
13h 22m
Waxing Crescent, 5% of the Moon is Illuminated
Apr 12
Waxing Crescent
Apr 18
First Quarter
Apr 25
Full
May 2
Last Quarter
May 9
New

Hourly Weather History & Observations

Time (EDT) Temp. Windchill Dew Point Humidity Pressure Visibility Wind Dir Wind Speed Gust Speed Precip Events Conditions
12:14 AM 30.0 °F 16.3 °F 27.0 °F 88% 29.82 in 5.0 mi East 24.2 mph 29.9 mph N/A Snow Light Snow
12:35 AM 30.0 °F 16.6 °F 26.8 °F 88% 29.80 in 4.0 mi East 23.0 mph 29.9 mph N/A Snow Light Snow
12:54 AM 29.8 °F 17.3 °F 27.0 °F 89% 29.80 in 3.0 mi East 19.6 mph 26.5 mph N/A Snow Light Snow
1:15 AM 29.8 °F 17.7 °F 26.8 °F 88% 29.79 in 4.0 mi East 18.4 mph 25.3 mph N/A Snow Light Snow
1:34 AM 29.8 °F 16.3 °F 26.6 °F 88% 29.79 in 3.0 mi East 23.0 mph 29.9 mph N/A Snow Light Snow
1:54 AM 30.0 °F 16.0 °F 26.4 °F 86% 29.77 in 3.0 mi East 25.3 mph 32.2 mph N/A Snow Light Snow
2:14 AM 30.0 °F 16.9 °F 26.1 °F 85% 29.77 in 4.0 mi East 21.9 mph 29.9 mph N/A Snow Light Snow
2:34 AM 30.0 °F 16.0 °F 26.1 °F 85% 29.77 in 5.0 mi East 25.3 mph 32.2 mph N/A Snow Light Snow
2:54 AM 29.7 °F 19.1 °F 25.7 °F 85% 29.76 in 5.0 mi East 13.8 mph - N/A Snow Light Snow
3:14 AM 29.3 °F 18.2 °F 26.2 °F 88% 29.76 in 3.0 mi East 15.0 mph 21.9 mph N/A Snow Light Snow
3:35 AM 29.1 °F 15.7 °F 26.4 °F 90% 29.73 in 2.0 mi East 21.9 mph 28.8 mph N/A Snow Light Snow
3:54 AM 28.9 °F 15.4 °F 26.4 °F 90% 29.72 in 4.0 mi East 21.9 mph 25.3 mph N/A   Overcast
4:14 AM 28.9 °F 16.1 °F 26.4 °F 90% 29.70 in 3.0 mi East 19.6 mph 26.5 mph N/A Snow Light Snow
4:34 AM 28.9 °F 17.3 °F 26.6 °F 91% 29.71 in 5.0 mi East 16.1 mph 21.9 mph N/A Snow Light Snow
4:54 AM 28.9 °F 16.9 °F 26.4 °F 90% 29.70 in 7.0 mi East 17.3 mph 27.6 mph N/A   Overcast
5:15 AM 29.1 °F 16.7 °F 26.2 °F 89% 29.69 in 10.0 mi East 18.4 mph 27.6 mph N/A   Overcast
5:34 AM 29.3 °F 16.6 °F 26.2 °F 88% 29.68 in 10.0 mi East 19.6 mph 27.6 mph N/A   Overcast
5:54 AM 29.3 °F 17.3 °F 26.6 °F 90% 29.68 in 10.0 mi East 17.3 mph 21.9 mph N/A Snow Light Snow
6:14 AM 29.7 °F 18.6 °F 26.6 °F 88% 29.67 in 7.0 mi East 15.0 mph 20.7 mph N/A Snow Light Snow
6:34 AM 29.7 °F 19.1 °F 26.6 °F 88% 29.67 in 7.0 mi East 13.8 mph 19.6 mph N/A Snow Light Snow
6:54 AM 29.7 °F 19.6 °F 27.0 °F 90% 29.67 in 10.0 mi ENE 12.7 mph - N/A   Overcast
7:14 AM 29.7 °F 19.1 °F 27.1 °F 90% 29.67 in 10.0 mi East 13.8 mph - N/A   Overcast
7:34 AM 29.8 °F 20.3 °F 27.1 °F 90% 29.67 in 7.0 mi East 11.5 mph 17.3 mph N/A Snow Light Snow
7:55 AM 30.0 °F 20.0 °F 27.1 °F 89% 29.66 in 7.0 mi East 12.7 mph 18.4 mph N/A Snow Light Snow
8:14 AM 30.2 °F 19.8 °F 27.5 °F 90% 29.65 in 5.0 mi ENE 13.8 mph 23.0 mph N/A Snow Light Snow
8:34 AM 30.0 °F 20.0 °F 28.0 °F 92% 29.64 in 1.8 mi East 12.7 mph - N/A Snow Light Snow
8:55 AM 30.2 °F 21.3 °F 28.6 °F 94% 29.64 in 2.5 mi East 10.4 mph - N/A Snow Light Snow
9:14 AM 30.2 °F 21.3 °F 28.8 °F 94% 29.64 in 4.0 mi East 10.4 mph - N/A   Overcast
9:34 AM 30.6 °F 21.2 °F 28.9 °F 94% 29.64 in 5.0 mi East 11.5 mph - N/A   Overcast
9:54 AM 30.7 °F 21.4 °F 28.8 °F 92% 29.64 in 5.0 mi East 11.5 mph - N/A   Overcast
10:14 AM 31.1 °F 23.7 °F 28.9 °F 92% 29.64 in 5.0 mi East 8.1 mph - N/A   Overcast
10:54 AM 31.1 °F 22.4 °F 29.7 °F 94% 29.64 in 2.0 mi East 10.4 mph - N/A   Overcast
11:14 AM 31.5 °F 22.9 °F 30.4 °F 96% 29.64 in 2.0 mi East 10.4 mph - N/A   Overcast
11:35 AM 31.6 °F 23.1 °F 30.7 °F 96% 29.64 in 2.0 mi East 10.4 mph - N/A   Overcast
11:54 AM 32.0 °F 23.6 °F 31.1 °F 96% 29.64 in 1.8 mi East 10.4 mph - N/A   Overcast
12:15 PM 32.0 °F 23.0 °F 31.6 °F 99% 29.63 in 4.0 mi East 11.5 mph - N/A   Overcast
12:34 PM 32.2 °F 23.8 °F 31.1 °F 96% 29.63 in 4.0 mi ENE 10.4 mph - N/A   Overcast
12:54 PM 32.5 °F 23.7 °F 31.1 °F 94% 29.63 in 3.0 mi East 11.5 mph - N/A Snow Light Snow
1:15 PM 32.9 °F 23.2 °F 31.1 °F 93% 29.63 in 2.5 mi East 13.8 mph - N/A   Overcast
1:34 PM 32.7 °F 23.4 °F 31.3 °F 94% 29.63 in 1.8 mi East 12.7 mph - N/A Snow Light Snow
1:54 PM 32.9 °F 24.1 °F 32.0 °F 96% 29.62 in 1.8 mi East 11.5 mph - N/A Snow Light Snow
2:15 PM 33.3 °F 25.1 °F 32.0 °F 95% 29.63 in 2.5 mi East 10.4 mph - N/A   Overcast
2:34 PM 33.8 °F 26.4 °F 32.0 °F 93% 29.63 in 5.0 mi East 9.2 mph - N/A   Overcast
2:54 PM 33.8 °F 27.0 °F 32.0 °F 93% 29.63 in 4.0 mi East 8.1 mph - N/A   Overcast
3:15 PM 34.0 °F 26.6 °F 32.0 °F 92% 29.64 in 2.5 mi East 9.2 mph - N/A Snow Light Snow
3:34 PM 33.3 °F 28.9 °F 32.4 °F 96% 29.64 in 1.2 mi ENE 4.6 mph - N/A Snow Light Snow
3:54 PM 33.3 °F 27.1 °F 32.9 °F 99% 29.64 in 2.0 mi East 6.9 mph - N/A Snow Light Snow
4:15 PM 33.4 °F 28.1 °F 33.3 °F 99% 29.64 in 3.0 mi East 5.8 mph - N/A Snow Light Snow
4:34 PM 33.8 °F 27.7 °F 33.3 °F 98% 29.63 in 7.0 mi East 6.9 mph - N/A Snow Light Snow
4:55 PM 34.2 °F 28.2 °F 33.3 °F 97% 29.63 in 7.0 mi East 6.9 mph - N/A   Overcast
5:14 PM 34.2 °F 27.5 °F 33.1 °F 96% 29.64 in 7.0 mi East 8.1 mph - N/A   Overcast
5:34 PM 33.8 °F 28.6 °F 32.9 °F 96% 29.64 in 10.0 mi NE 5.8 mph - N/A   Overcast
5:55 PM 33.4 °F 26.6 °F 32.9 °F 98% 29.64 in 7.0 mi East 8.1 mph - N/A   Overcast
6:14 PM 33.8 °F 26.4 °F 32.4 °F 94% 29.65 in 4.0 mi East 9.2 mph - N/A   Overcast
6:34 PM 33.4 °F 27.3 °F 32.4 °F 96% 29.66 in 4.0 mi East 6.9 mph - N/A   Overcast
6:55 PM 33.3 °F 25.7 °F 32.4 °F 96% 29.66 in 2.5 mi East 9.2 mph - N/A   Overcast
7:14 PM 33.1 °F 25.5 °F 32.4 °F 97% 29.67 in 1.8 mi East 9.2 mph - N/A Snow Light Snow
7:34 PM 32.9 °F 25.9 °F 32.4 °F 98% 29.67 in 1.5 mi East 8.1 mph - N/A Snow Light Snow
7:55 PM 32.4 °F 26.0 °F 32.2 °F 99% 29.67 in 2.0 mi East 6.9 mph - N/A Snow Light Snow
8:14 PM 32.2 °F 25.8 °F 32.0 °F 99% 29.68 in 1.2 mi East 6.9 mph - N/A Snow Light Snow
8:34 PM 32.0 °F 26.4 °F 32.0 °F 100% 29.68 in 1.5 mi East 5.8 mph - N/A Snow Light Snow
8:54 PM 32.0 °F 27.5 °F 32.0 °F 100% 29.68 in 5.0 mi East 4.6 mph - N/A Snow Light Snow
9:14 PM 32.0 °F 26.4 °F 32.0 °F 100% 29.68 in 3.0 mi East 5.8 mph - N/A Snow Light Snow
9:35 PM 32.0 °F 28.7 °F 32.0 °F 100% 29.69 in 4.0 mi East 3.5 mph - N/A Snow Light Snow
9:54 PM 32.0 °F - 32.0 °F 100% 29.69 in 4.0 mi Calm Calm - N/A Snow Light Snow
10:14 PM 32.0 °F 28.7 °F 32.0 °F 100% 29.70 in 3.0 mi ENE 3.5 mph - N/A Snow Light Snow
10:34 PM 31.6 °F - 31.6 °F 100% 29.70 in 3.0 mi Calm Calm - N/A Snow Light Snow
10:54 PM 31.6 °F - 31.6 °F 100% 29.70 in 7.0 mi Calm Calm - N/A   Overcast
11:14 PM 31.6 °F - 31.6 °F 100% 29.70 in 5.0 mi Calm Calm - N/A   Overcast
11:34 PM 31.6 °F - 31.6 °F 100% 29.70 in 4.0 mi Calm Calm - N/A   Overcast
11:55 PM 31.6 °F - 31.6 °F 100% 29.70 in 7.0 mi Calm Calm - N/A   Overcast